Time;durP1;ratioP1;P1;durP2;ratioP2;P2;SDS_P1;SDS_P2;PMS_P1;PMS_P2;Temp;Humidity;BMP_temperature;BMP_pressure;BME280_temperature;BME280_humidity;BME280_pressure;Samples;Min_cycle;Max_cycle;Signal;HPM_P1;HPM_P2
2023/01/20 00:00:25;;;;;;;11.00;5.70;;;;;;;;;;5062967;28;20205;-27
2023/01/20 00:02:52;;;;;;;9.10;6.47;;;;;;;;;;5072396;28;20224;-26
2023/01/20 00:05:19;;;;;;;9.77;6.33;;;;;;;;;;5071568;28;20209;-26
2023/01/20 00:07:46;;;;;;;8.23;6.43;;;;;;;;;;5070465;28;20204;-23
2023/01/20 00:10:23;;;;;;;10.23;6.80;;;;;;;;;;5064766;28;20503;-26
2023/01/20 00:12:50;;;;;;;9.17;6.00;;;;;;;;;;5065455;28;20221;-27
2023/01/20 00:15:18;;;;;;;8.37;5.77;;;;;;;;;;5065258;28;20205;-27
2023/01/20 00:17:45;;;;;;;7.97;5.80;;;;;;;;;;5072553;28;20220;-26
2023/01/20 00:20:12;;;;;;;10.57;6.20;;;;;;;;;;5073657;28;20647;-24
2023/01/20 00:22:41;;;;;;;9.13;6.23;;;;;;;;;;5068140;28;20212;-24
2023/01/20 00:25:08;;;;;;;7.37;6.07;;;;;;;;;;5067329;28;20216;-24
2023/01/20 00:27:37;;;;;;;9.53;6.40;;;;;;;;;;5073820;28;20202;-24
2023/01/20 00:30:04;;;;;;;8.27;6.27;;;;;;;;;;5063076;28;20213;-26
2023/01/20 00:32:32;;;;;;;12.90;7.73;;;;;;;;;;5071114;28;20202;-27
2023/01/20 00:34:59;;;;;;;10.57;7.10;;;;;;;;;;5073178;28;20292;-25
2023/01/20 00:37:26;;;;;;;9.27;6.17;;;;;;;;;;5068265;28;20225;-27
2023/01/20 00:39:53;;;;;;;9.67;6.20;;;;;;;;;;5068466;28;20651;-27
2023/01/20 00:42:20;;;;;;;8.97;6.33;;;;;;;;;;5072743;28;20204;-22
2023/01/20 00:44:49;;;;;;;8.73;6.40;;;;;;;;;;5064853;28;20229;-30
2023/01/20 00:47:16;;;;;;;11.77;7.20;;;;;;;;;;5065092;28;20202;-26
2023/01/20 00:49:43;;;;;;;11.63;7.50;;;;;;;;;;5072791;28;20204;-26
2023/01/20 00:52:10;;;;;;;11.83;7.50;;;;;;;;;;5069844;28;20202;-24
2023/01/20 00:54:37;;;;;;;11.17;7.73;;;;;;;;;;5066258;28;20321;-27
2023/01/20 00:57:04;;;;;;;10.93;7.47;;;;;;;;;;5072510;28;20292;-29
2023/01/20 00:59:31;;;;;;;11.57;7.27;;;;;;;;;;5062931;28;20792;-28
2023/01/20 01:02:00;;;;;;;10.07;7.17;;;;;;;;;;5064372;28;20209;-26
2023/01/20 01:04:27;;;;;;;12.63;6.60;;;;;;;;;;5072106;28;20317;-24
2023/01/20 01:06:54;;;;;;;9.33;6.97;;;;;;;;;;5072466;28;20209;-28
2023/01/20 01:09:21;;;;;;;13.37;7.17;;;;;;;;;;5066137;28;20612;-26
2023/01/20 01:11:48;;;;;;;10.00;7.00;;;;;;;;;;5072022;28;20851;-30
2023/01/20 01:14:16;;;;;;;10.23;6.07;;;;;;;;;;5064962;28;20232;-30
2023/01/20 01:16:43;;;;;;;9.83;5.67;;;;;;;;;;5063813;28;20202;-26
2023/01/20 01:19:12;;;;;;;7.93;5.60;;;;;;;;;;5071929;28;20217;-28
2023/01/20 01:21:39;;;;;;;9.57;6.13;;;;;;;;;;5072460;28;20205;-27
2023/01/20 01:24:06;;;;;;;7.10;5.33;;;;;;;;;;5065282;28;20304;-24
2023/01/20 01:26:33;;;;;;;10.17;6.30;;;;;;;;;;5063099;28;20210;-27
2023/01/20 01:29:00;;;;;;;10.73;6.53;;;;;;;;;;5068646;28;20229;-25
2023/01/20 01:31:28;;;;;;;8.43;6.20;;;;;;;;;;5073343;28;20213;-26
2023/01/20 01:33:55;;;;;;;8.93;6.90;;;;;;;;;;5072762;28;20219;-25
2023/01/20 01:36:23;;;;;;;7.30;5.60;;;;;;;;;;5072919;28;20296;-23
2023/01/20 01:38:50;;;;;;;7.47;5.50;;;;;;;;;;5063849;28;20225;-29
2023/01/20 01:41:18;;;;;;;8.17;5.30;;;;;;;;;;5067668;28;20205;-29
2023/01/20 01:44:00;;;;;;;9.50;6.23;;;;;;;;;;5067280;28;20224;-25
2023/01/20 01:46:28;;;;;;;12.07;5.47;;;;;;;;;;5070572;28;20572;-33
2023/01/20 01:48:55;;;;;;;8.50;5.53;;;;;;;;;;5072057;28;20201;-35
2023/01/20 01:51:26;;;;;;;9.77;5.97;;;;;;;;;;5070703;28;20205;-34
2023/01/20 01:53:56;;;;;;;7.97;6.23;;;;;;;;;;5068860;28;20228;-34
2023/01/20 01:56:24;;;;;;;9.70;6.60;;;;;;;;;;5075407;28;20535;-30
2023/01/20 01:58:52;;;;;;;8.43;6.07;;;;;;;;;;5071628;28;20308;-31
2023/01/20 02:01:19;;;;;;;10.60;6.40;;;;;;;;;;5063118;28;20209;-35
2023/01/20 02:03:50;;;;;;;8.43;6.70;;;;;;;;;;5074386;28;20240;-33
2023/01/20 02:06:17;;;;;;;9.47;6.13;;;;;;;;;;5075880;28;20207;-30
2023/01/20 02:08:46;;;;;;;11.00;6.77;;;;;;;;;;5070734;28;20198;-28
2023/01/20 02:11:13;;;;;;;9.50;6.53;;;;;;;;;;5072460;28;20293;-30
2023/01/20 02:13:40;;;;;;;8.87;6.33;;;;;;;;;;5056065;28;20225;-33
2023/01/20 02:16:13;;;;;;;11.97;6.60;;;;;;;;;;5074591;28;20263;-34
2023/01/20 02:18:46;;;;;;;9.50;5.80;;;;;;;;;;5075396;28;20221;-32
2023/01/20 02:21:31;;;;;;;8.00;5.77;;;;;;;;;;5074606;28;20635;-33
2023/01/20 02:24:08;;;;;;;11.33;7.60;;;;;;;;;;5072240;28;20221;-33
2023/01/20 02:26:50;;;;;;;9.83;6.77;;;;;;;;;;5075261;28;20205;-29
2023/01/20 02:29:47;;;;;;;8.97;5.77;;;;;;;;;;5063508;28;20202;-38
2023/01/20 02:32:22;;;;;;;8.83;6.10;;;;;;;;;;5070457;28;20197;-35
2023/01/20 02:34:52;;;;;;;9.17;6.57;;;;;;;;;;5067769;28;20575;-33
2023/01/20 02:37:22;;;;;;;9.30;6.27;;;;;;;;;;5075095;28;20558;-32
2023/01/20 02:39:54;;;;;;;11.23;7.33;;;;;;;;;;5060365;28;20218;-27
2023/01/20 02:42:24;;;;;;;8.87;6.93;;;;;;;;;;5070483;28;20213;-34
2023/01/20 02:44:53;;;;;;;10.57;6.53;;;;;;;;;;5057751;28;20197;-36
2023/01/20 02:47:23;;;;;;;11.83;7.57;;;;;;;;;;5067548;28;20206;-33
2023/01/20 02:49:53;;;;;;;10.37;6.80;;;;;;;;;;5067294;28;20201;-32
2023/01/20 02:52:22;;;;;;;9.43;5.93;;;;;;;;;;5068604;28;20208;-40
2023/01/20 02:54:50;;;;;;;11.63;7.43;;;;;;;;;;5069081;28;20232;-33
2023/01/20 02:57:19;;;;;;;11.63;6.90;;;;;;;;;;5074837;28;20582;-37
2023/01/20 02:59:49;;;;;;;9.07;6.13;;;;;;;;;;5063165;28;20225;-35
2023/01/20 03:02:18;;;;;;;8.43;5.83;;;;;;;;;;5071671;28;20206;-33
2023/01/20 03:04:48;;;;;;;10.47;6.50;;;;;;;;;;5074398;28;20514;-36
2023/01/20 03:07:17;;;;;;;10.20;6.50;;;;;;;;;;5065171;28;20316;-34
2023/01/20 03:09:46;;;;;;;12.10;6.30;;;;;;;;;;5068644;28;20205;-35
2023/01/20 03:12:17;;;;;;;10.20;6.47;;;;;;;;;;5071315;28;20201;-34
2023/01/20 03:14:44;;;;;;;10.60;6.87;;;;;;;;;;5067691;28;20225;-35
2023/01/20 03:17:11;;;;;;;12.63;6.77;;;;;;;;;;5075034;28;20540;-32
2023/01/20 03:19:38;;;;;;;10.33;6.43;;;;;;;;;;5074624;28;20221;-28
2023/01/20 03:22:07;;;;;;;8.00;5.63;;;;;;;;;;5065627;28;20288;-33
2023/01/20 03:24:35;;;;;;;9.27;7.03;;;;;;;;;;5073793;28;20586;-31
2023/01/20 03:27:02;;;;;;;8.33;6.43;;;;;;;;;;5075259;28;20212;-32
2023/01/20 03:29:29;;;;;;;11.13;6.60;;;;;;;;;;5068642;28;20689;-32
2023/01/20 03:31:58;;;;;;;11.57;7.40;;;;;;;;;;5067097;28;20672;-34
2023/01/20 03:34:26;;;;;;;10.43;6.80;;;;;;;;;;5074803;28;20247;-32
2023/01/20 03:36:54;;;;;;;9.77;7.40;;;;;;;;;;5069625;28;20202;-38
2023/01/20 03:39:24;;;;;;;11.47;7.63;;;;;;;;;;5069908;28;20225;-31
2023/01/20 03:41:54;;;;;;;10.77;6.60;;;;;;;;;;5074491;28;20205;-33
2023/01/20 03:44:24;;;;;;;8.93;6.03;;;;;;;;;;5064679;28;20224;-33
2023/01/20 03:46:53;;;;;;;9.67;6.30;;;;;;;;;;5066468;28;20208;-33
2023/01/20 03:49:25;;;;;;;11.20;7.23;;;;;;;;;;5072031;28;20292;-30
2023/01/20 03:51:55;;;;;;;10.63;6.70;;;;;;;;;;5066229;28;20201;-31
2023/01/20 03:54:27;;;;;;;9.23;6.43;;;;;;;;;;5063362;28;20231;-30
2023/01/20 03:56:57;;;;;;;9.83;6.80;;;;;;;;;;5074277;28;20189;-29
2023/01/20 03:59:24;;;;;;;9.50;6.53;;;;;;;;;;5066828;28;20568;-30
2023/01/20 04:01:52;;;;;;;12.07;7.63;;;;;;;;;;5058190;28;20205;-29
2023/01/20 04:04:20;;;;;;;9.87;6.70;;;;;;;;;;5071891;28;20225;-30
2023/01/20 04:06:48;;;;;;;11.97;6.33;;;;;;;;;;5070981;28;20202;-38
2023/01/20 04:09:17;;;;;;;16.30;6.53;;;;;;;;;;5063681;28;20213;-31
2023/01/20 04:11:46;;;;;;;10.50;7.17;;;;;;;;;;5072729;28;20197;-34
2023/01/20 04:14:13;;;;;;;9.47;6.77;;;;;;;;;;5067977;28;20232;-31
2023/01/20 04:16:40;;;;;;;11.97;7.30;;;;;;;;;;5055535;28;20217;-34
2023/01/20 04:19:07;;;;;;;11.47;7.33;;;;;;;;;;5069511;28;20229;-28
2023/01/20 04:21:36;;;;;;;8.37;6.37;;;;;;;;;;5065317;28;20217;-32
2023/01/20 04:24:05;;;;;;;11.20;6.97;;;;;;;;;;5063049;28;20232;-33
2023/01/20 04:26:32;;;;;;;8.03;6.53;;;;;;;;;;5073543;28;20212;-31
2023/01/20 04:29:07;;;;;;;12.17;8.03;;;;;;;;;;5068141;28;20194;-34
2023/01/20 04:31:34;;;;;;;9.93;6.57;;;;;;;;;;5054833;28;20296;-32
2023/01/20 04:34:01;;;;;;;9.27;6.47;;;;;;;;;;5069538;28;20565;-30
2023/01/20 04:36:28;;;;;;;13.07;7.67;;;;;;;;;;5064755;28;20222;-29
2023/01/20 04:38:55;;;;;;;10.50;7.60;;;;;;;;;;5063427;28;20245;-30
2023/01/20 04:41:22;;;;;;;11.30;7.20;;;;;;;;;;5070627;28;20650;-31
2023/01/20 04:43:49;;;;;;;10.60;7.63;;;;;;;;;;5065374;28;20287;-34
2023/01/20 04:46:18;;;;;;;8.37;6.60;;;;;;;;;;5057318;28;20216;-35
2023/01/20 04:48:45;;;;;;;11.07;7.30;;;;;;;;;;5069112;28;20193;-34
2023/01/20 04:51:12;;;;;;;11.87;7.83;;;;;;;;;;5070276;28;20615;-37
2023/01/20 04:53:40;;;;;;;10.97;7.40;;;;;;;;;;5062111;28;20240;-35
2023/01/20 04:56:11;;;;;;;9.50;6.77;;;;;;;;;;5069891;28;20209;-30
2023/01/20 04:58:38;;;;;;;9.10;7.30;;;;;;;;;;5065463;28;20205;-29
2023/01/20 05:01:05;;;;;;;10.90;7.27;;;;;;;;;;5055234;28;20507;-30
2023/01/20 05:03:33;;;;;;;10.23;6.37;;;;;;;;;;5068549;28;20245;-28
2023/01/20 05:06:00;;;;;;;8.80;6.47;;;;;;;;;;5070554;28;20236;-31
2023/01/20 05:08:28;;;;;;;9.47;6.20;;;;;;;;;;5058928;28;20575;-32
2023/01/20 05:10:55;;;;;;;11.37;7.20;;;;;;;;;;5054541;28;20213;-28
2023/01/20 05:13:22;;;;;;;8.50;6.47;;;;;;;;;;5067728;28;20217;-35
2023/01/20 05:15:49;;;;;;;9.50;6.47;;;;;;;;;;5057284;28;20652;-31
2023/01/20 05:18:16;;;;;;;9.37;6.80;;;;;;;;;;5059038;28;20229;-34
2023/01/20 05:20:46;;;;;;;11.63;7.33;;;;;;;;;;5061299;28;20217;-33
2023/01/20 05:23:13;;;;;;;9.33;6.97;;;;;;;;;;5054325;28;20233;-31
2023/01/20 05:25:40;;;;;;;7.67;6.40;;;;;;;;;;5067647;28;20207;-34
2023/01/20 05:28:07;;;;;;;9.40;6.77;;;;;;;;;;5064004;28;20206;-34
2023/01/20 05:30:34;;;;;;;10.03;6.40;;;;;;;;;;5051629;28;20208;-26
2023/01/20 05:33:01;;;;;;;10.33;6.97;;;;;;;;;;5065625;28;20214;-35
2023/01/20 05:35:28;;;;;;;9.00;6.57;;;;;;;;;;5071687;28;20224;-30
2023/01/20 05:37:57;;;;;;;8.07;5.97;;;;;;;;;;5067897;28;20563;-32
2023/01/20 05:40:24;;;;;;;8.13;5.87;;;;;;;;;;5068460;28;20217;-33
2023/01/20 05:42:51;;;;;;;10.43;6.80;;;;;;;;;;5069797;28;20221;-34
2023/01/20 05:45:33;;;;;;;9.87;6.77;;;;;;;;;;5027040;28;20209;-32
2023/01/20 05:48:01;;;;;;;9.90;6.37;;;;;;;;;;5066618;28;20855;-30
2023/01/20 05:50:29;;;;;;;8.50;6.30;;;;;;;;;;5069740;28;20202;-36
2023/01/20 05:52:59;;;;;;;9.03;6.57;;;;;;;;;;5060188;28;20225;-30
2023/01/20 05:55:26;;;;;;;9.00;5.73;;;;;;;;;;5071604;28;20741;-31
2023/01/20 05:57:53;;;;;;;9.73;6.40;;;;;;;;;;5066858;28;20197;-40
2023/01/20 06:00:20;;;;;;;13.13;7.30;;;;;;;;;;5050368;28;20220;-28
2023/01/20 06:02:47;;;;;;;9.67;6.47;;;;;;;;;;5071107;28;20237;-32
2023/01/20 06:05:15;;;;;;;9.57;6.67;;;;;;;;;;5072313;28;20220;-28
2023/01/20 06:07:42;;;;;;;8.50;6.10;;;;;;;;;;5067197;28;20213;-28
2023/01/20 06:10:11;;;;;;;12.73;6.83;;;;;;;;;;5065525;28;20198;-28
2023/01/20 06:12:38;;;;;;;9.23;6.37;;;;;;;;;;5071278;28;20579;-33
2023/01/20 06:15:06;;;;;;;10.67;6.40;;;;;;;;;;5059457;28;20209;-28
2023/01/20 06:17:33;;;;;;;9.30;5.93;;;;;;;;;;5061728;28;20240;-34
2023/01/20 06:20:00;;;;;;;9.17;6.40;;;;;;;;;;5072044;28;20236;-31
2023/01/20 06:22:28;;;;;;;8.00;6.27;;;;;;;;;;5072075;28;20209;-30
2023/01/20 06:24:55;;;;;;;7.87;5.67;;;;;;;;;;5064877;28;20205;-34
2023/01/20 06:27:23;;;;;;;10.13;6.40;;;;;;;;;;5070751;28;20212;-34
2023/01/20 06:29:51;;;;;;;9.43;6.20;;;;;;;;;;5060605;28;20194;-37
2023/01/20 06:32:18;;;;;;;8.43;6.30;;;;;;;;;;5065965;28;20213;-35
2023/01/20 06:34:45;;;;;;;8.23;6.37;;;;;;;;;;5063248;28;20217;-34
2023/01/20 06:37:12;;;;;;;9.40;6.27;;;;;;;;;;5063649;28;20201;-36
2023/01/20 06:39:39;;;;;;;10.30;6.73;;;;;;;;;;5067346;28;20229;-34
2023/01/20 06:42:07;;;;;;;10.50;6.10;;;;;;;;;;5072876;28;20210;-32
2023/01/20 06:44:35;;;;;;;7.00;5.70;;;;;;;;;;5062205;28;20230;-34
2023/01/20 06:47:02;;;;;;;10.80;6.87;;;;;;;;;;5059796;28;20292;-34
2023/01/20 06:49:32;;;;;;;6.90;5.30;;;;;;;;;;5072369;28;20217;-31
2023/01/20 06:51:59;;;;;;;8.20;5.97;;;;;;;;;;5076944;28;20296;-31
2023/01/20 06:54:26;;;;;;;12.43;6.10;;;;;;;;;;5074613;28;20221;-30
2023/01/20 06:56:53;;;;;;;9.80;6.17;;;;;;;;;;5060199;28;20254;-31
2023/01/20 06:59:20;;;;;;;8.47;5.50;;;;;;;;;;5067796;28;20229;-32
2023/01/20 07:01:49;;;;;;;7.73;5.50;;;;;;;;;;5058703;28;20205;-32
2023/01/20 07:04:16;;;;;;;9.80;6.17;;;;;;;;;;5072104;28;20233;-32
2023/01/20 07:06:43;;;;;;;6.60;5.53;;;;;;;;;;5072516;28;20205;-33
2023/01/20 07:09:12;;;;;;;8.27;6.60;;;;;;;;;;5069680;28;20214;-33
2023/01/20 07:11:39;;;;;;;8.70;6.30;;;;;;;;;;5074625;28;20193;-31
2023/01/20 07:14:07;;;;;;;7.93;5.70;;;;;;;;;;5075201;28;20231;-37
2023/01/20 07:16:34;;;;;;;9.00;6.43;;;;;;;;;;5073276;28;20295;-35
2023/01/20 07:19:03;;;;;;;11.43;6.70;;;;;;;;;;5068824;28;20206;-34
2023/01/20 07:21:39;;;;;;;10.47;5.90;;;;;;;;;;5072225;28;20232;-32
2023/01/20 07:24:06;;;;;;;7.27;5.87;;;;;;;;;;5075171;28;20223;-32
2023/01/20 07:26:35;;;;;;;8.73;6.03;;;;;;;;;;5073000;28;20206;-32
2023/01/20 07:29:02;;;;;;;11.10;6.57;;;;;;;;;;5061810;28;20212;-32
2023/01/20 07:31:30;;;;;;;8.60;5.93;;;;;;;;;;5059600;28;20210;-33
2023/01/20 07:37:02;;;;;;;9.57;6.63;;;;;;;;;;5063372;28;20650;-31
2023/01/20 07:39:29;;;;;;;11.30;6.33;;;;;;;;;;5059026;28;20216;-32
2023/01/20 07:41:56;;;;;;;8.00;6.33;;;;;;;;;;5068720;28;20209;-33
2023/01/20 07:44:24;;;;;;;10.00;6.70;;;;;;;;;;5063536;28;20218;-31
2023/01/20 07:46:56;;;;;;;11.80;7.10;;;;;;;;;;5058427;28;20229;-30
2023/01/20 07:49:23;;;;;;;9.57;6.47;;;;;;;;;;5074492;28;20193;-33
2023/01/20 07:51:50;;;;;;;11.20;7.10;;;;;;;;;;5070582;28;20256;-31
2023/01/20 07:54:18;;;;;;;9.67;6.43;;;;;;;;;;5052113;28;20228;-31
2023/01/20 07:56:46;;;;;;;13.33;6.63;;;;;;;;;;5072843;28;20664;-35
2023/01/20 07:59:13;;;;;;;9.77;6.23;;;;;;;;;;5067508;28;20205;-33
2023/01/20 08:01:40;;;;;;;12.53;7.10;;;;;;;;;;5063376;28;20233;-35
2023/01/20 08:04:07;;;;;;;10.10;7.27;;;;;;;;;;5069987;28;20333;-32
2023/01/20 08:06:34;;;;;;;8.87;6.87;;;;;;;;;;5071206;28;20209;-33
2023/01/20 08:09:02;;;;;;;9.33;6.93;;;;;;;;;;5063008;28;20213;-32
2023/01/20 08:11:31;;;;;;;9.10;6.87;;;;;;;;;;5065744;28;20225;-31
2023/01/20 08:13:59;;;;;;;9.07;6.50;;;;;;;;;;5055614;28;20602;-29
2023/01/20 08:16:26;;;;;;;9.50;6.63;;;;;;;;;;5064222;28;20228;-32
2023/01/20 08:18:54;;;;;;;8.37;6.87;;;;;;;;;;5067489;28;20212;-35
2023/01/20 08:21:22;;;;;;;10.03;7.70;;;;;;;;;;5062181;28;20263;-32
2023/01/20 08:23:49;;;;;;;12.57;8.20;;;;;;;;;;5065222;28;20240;-33
2023/01/20 08:26:18;;;;;;;9.40;7.00;;;;;;;;;;5067289;28;20216;-33
2023/01/20 08:28:46;;;;;;;9.03;7.20;;;;;;;;;;5063776;28;20313;-30
2023/01/20 08:31:14;;;;;;;11.00;6.80;;;;;;;;;;5065978;28;20204;-34
2023/01/20 08:33:42;;;;;;;9.30;6.47;;;;;;;;;;5069388;28;20228;-29
2023/01/20 08:36:10;;;;;;;12.70;7.40;;;;;;;;;;5065867;28;20675;-33
2023/01/20 08:38:37;;;;;;;8.40;7.03;;;;;;;;;;5060228;28;20323;-31
2023/01/20 08:41:06;;;;;;;11.63;7.50;;;;;;;;;;5067973;28;20213;-36
2023/01/20 08:43:33;;;;;;;16.27;7.83;;;;;;;;;;5059786;28;20217;-33
2023/01/20 08:46:02;;;;;;;10.70;7.43;;;;;;;;;;5061157;28;20202;-33
2023/01/20 08:48:29;;;;;;;10.03;6.97;;;;;;;;;;5068525;28;20205;-34
2023/01/20 08:50:56;;;;;;;14.00;8.13;;;;;;;;;;5068546;28;20197;-33
2023/01/20 08:53:24;;;;;;;11.57;8.10;;;;;;;;;;5060297;28;20221;-30
2023/01/20 08:55:55;;;;;;;12.73;8.40;;;;;;;;;;5066378;28;20664;-33
2023/01/20 08:58:23;;;;;;;9.27;7.33;;;;;;;;;;5062427;28;20201;-29
2023/01/20 09:00:50;;;;;;;13.13;8.47;;;;;;;;;;5063520;28;20225;-29
2023/01/20 09:03:18;;;;;;;8.33;6.47;;;;;;;;;;5068080;28;20229;-28
2023/01/20 09:05:45;;;;;;;11.30;7.83;;;;;;;;;;5066814;28;20209;-36
2023/01/20 09:08:13;;;;;;;8.53;6.53;;;;;;;;;;5062476;28;20193;-33
2023/01/20 09:10:41;;;;;;;12.43;7.57;;;;;;;;;;5064462;28;20561;-30
2023/01/20 09:13:08;;;;;;;10.00;7.20;;;;;;;;;;5070903;28;20225;-34
2023/01/20 09:15:35;;;;;;;9.53;7.23;;;;;;;;;;5063167;28;20197;-34
2023/01/20 09:18:02;;;;;;;11.33;8.17;;;;;;;;;;5068545;28;20198;-28
2023/01/20 09:20:30;;;;;;;11.40;7.67;;;;;;;;;;5067287;28;20228;-32
2023/01/20 09:23:02;;;;;;;9.90;7.23;;;;;;;;;;5059666;28;20248;-30
2023/01/20 09:25:29;;;;;;;11.97;7.43;;;;;;;;;;5067410;28;20213;-32
2023/01/20 09:27:56;;;;;;;10.47;7.37;;;;;;;;;;5048903;28;20209;-34
2023/01/20 09:30:23;;;;;;;11.13;7.40;;;;;;;;;;5050404;28;20644;-28
2023/01/20 09:32:52;;;;;;;9.53;7.17;;;;;;;;;;5060884;28;20224;-35
2023/01/20 09:35:19;;;;;;;10.87;6.90;;;;;;;;;;5071245;28;20202;-30
2023/01/20 09:46:16;;;;;;;10.83;7.77;;;;;;;;;;5059130;28;20200;-31
2023/01/20 09:54:23;;;;;;;9.73;7.77;;;;;;;;;;5052775;28;20229;-35
2023/01/20 09:56:52;;;;;;;12.47;7.77;;;;;;;;;;5064165;28;20212;-35
2023/01/20 09:59:22;;;;;;;11.53;8.37;;;;;;;;;;5057431;28;20208;-33
2023/01/20 10:01:50;;;;;;;11.17;7.53;;;;;;;;;;5064159;28;20225;-30
2023/01/20 10:04:21;;;;;;;10.70;8.03;;;;;;;;;;5065765;28;20221;-34
2023/01/20 10:06:50;;;;;;;15.53;9.17;;;;;;;;;;5061889;28;20224;-30
2023/01/20 10:09:20;;;;;;;9.10;7.73;;;;;;;;;;5058136;28;20205;-34
2023/01/20 10:11:50;;;;;;;13.83;8.50;;;;;;;;;;5065056;28;20193;-29
2023/01/20 10:14:26;;;;;;;11.53;8.33;;;;;;;;;;5061593;28;20232;-33
2023/01/20 10:16:56;;;;;;;12.67;9.40;;;;;;;;;;5071312;28;20478;-35
2023/01/20 10:19:26;;;;;;;12.60;8.57;;;;;;;;;;5064931;28;20216;-37
2023/01/20 10:21:59;;;;;;;11.10;8.07;;;;;;;;;;5062326;28;20562;-35
2023/01/20 10:24:29;;;;;;;11.00;8.60;;;;;;;;;;5063648;28;20240;-30
2023/01/20 10:26:59;;;;;;;15.60;8.53;;;;;;;;;;5068030;28;20684;-34
2023/01/20 10:29:30;;;;;;;10.43;8.63;;;;;;;;;;5060425;28;20197;-30
2023/01/20 10:31:59;;;;;;;10.33;8.50;;;;;;;;;;5067924;28;20198;-32
2023/01/20 10:34:29;;;;;;;12.83;8.43;;;;;;;;;;5068424;28;20234;-28
2023/01/20 10:37:01;;;;;;;13.43;7.93;;;;;;;;;;5060958;28;20208;-33
2023/01/20 10:39:31;;;;;;;11.90;8.50;;;;;;;;;;5068992;28;20197;-33
2023/01/20 10:42:04;;;;;;;11.57;8.90;;;;;;;;;;5074440;28;20671;-32
2023/01/20 10:44:33;;;;;;;13.07;8.33;;;;;;;;;;5061550;28;20233;-27
2023/01/20 10:47:06;;;;;;;11.23;8.07;;;;;;;;;;5060405;28;20234;-29
2023/01/20 10:49:40;;;;;;;10.90;8.27;;;;;;;;;;5072535;28;20205;-31
2023/01/20 10:52:16;;;;;;;13.83;9.37;;;;;;;;;;5074579;28;20193;-33
2023/01/20 10:54:47;;;;;;;12.40;8.20;;;;;;;;;;5054580;28;20677;-35
2023/01/20 10:57:15;;;;;;;12.47;8.37;;;;;;;;;;5073777;28;20209;-33
2023/01/20 10:59:43;;;;;;;14.23;9.27;;;;;;;;;;5064953;28;20232;-34
2023/01/20 11:02:16;;;;;;;10.60;8.30;;;;;;;;;;5068030;28;20220;-33
2023/01/20 11:04:43;;;;;;;10.37;8.23;;;;;;;;;;5073346;28;20222;-34
2023/01/20 11:07:14;;;;;;;10.67;8.37;;;;;;;;;;5066837;28;20206;-36
2023/01/20 11:09:41;;;;;;;13.20;8.30;;;;;;;;;;5062406;28;20205;-34
2023/01/20 11:12:13;;;;;;;16.07;8.33;;;;;;;;;;5070459;28;20197;-31
2023/01/20 11:14:42;;;;;;;11.00;8.43;;;;;;;;;;5065130;28;20589;-33
2023/01/20 11:17:13;;;;;;;11.97;8.33;;;;;;;;;;5069328;28;20280;-36
2023/01/20 11:19:45;;;;;;;9.17;8.10;;;;;;;;;;5071874;28;20205;-36
2023/01/20 11:22:13;;;;;;;13.37;8.57;;;;;;;;;;5062274;28;20562;-36
2023/01/20 11:24:42;;;;;;;12.30;9.67;;;;;;;;;;5064866;28;20230;-35
2023/01/20 11:27:13;;;;;;;10.80;8.67;;;;;;;;;;5061785;28;20714;-33
2023/01/20 11:29:43;;;;;;;11.23;8.33;;;;;;;;;;5066296;28;20762;-30
2023/01/20 11:32:30;;;;;;;11.40;8.60;;;;;;;;;;5067168;28;20194;-26
2023/01/20 11:34:58;;;;;;;14.20;9.57;;;;;;;;;;5067934;28;20198;-33
2023/01/20 11:37:26;;;;;;;13.03;8.87;;;;;;;;;;5072663;28;20205;-33
2023/01/20 11:40:03;;;;;;;12.43;9.47;;;;;;;;;;5068028;28;20198;-33
2023/01/20 11:42:31;;;;;;;13.67;9.77;;;;;;;;;;5072850;28;20235;-29
2023/01/20 11:45:01;;;;;;;12.73;9.47;;;;;;;;;;5060220;28;20198;-28
2023/01/20 11:47:29;;;;;;;11.90;8.43;;;;;;;;;;5069419;28;20205;-31
2023/01/20 11:50:15;;;;;;;11.20;9.10;;;;;;;;;;5073184;28;20680;-30
2023/01/20 11:52:44;;;;;;;10.43;8.63;;;;;;;;;;5066472;28;20710;-29
2023/01/20 11:55:15;;;;;;;11.40;8.47;;;;;;;;;;5066657;28;20578;-31
2023/01/20 11:57:44;;;;;;;11.47;7.63;;;;;;;;;;5073137;28;20648;-29
2023/01/20 12:00:27;;;;;;;11.93;8.40;;;;;;;;;;5066038;28;20232;-30
2023/01/20 12:03:00;;;;;;;11.70;8.93;;;;;;;;;;5065831;28;20286;-32
2023/01/20 12:05:30;;;;;;;9.80;7.63;;;;;;;;;;5070837;28;20204;-32
2023/01/20 12:07:58;;;;;;;12.37;7.07;;;;;;;;;;5068800;28;20713;-29
2023/01/20 12:10:28;;;;;;;10.43;7.83;;;;;;;;;;5056849;28;20210;-33
2023/01/20 12:12:58;;;;;;;12.27;7.60;;;;;;;;;;5064309;28;20221;-32
2023/01/20 12:15:27;;;;;;;9.33;7.33;;;;;;;;;;5061723;28;20213;-30
2023/01/20 12:17:56;;;;;;;11.87;7.90;;;;;;;;;;5068766;28;20298;-30
2023/01/20 12:20:28;;;;;;;9.73;7.70;;;;;;;;;;5072969;28;20212;-34
2023/01/20 12:23:01;;;;;;;9.17;7.17;;;;;;;;;;5066497;28;20271;-28
2023/01/20 12:25:30;;;;;;;10.90;6.87;;;;;;;;;;5066503;28;20231;-26
2023/01/20 12:27:59;;;;;;;10.77;7.20;;;;;;;;;;5069755;28;20197;-32
2023/01/20 12:30:44;;;;;;;8.70;7.40;;;;;;;;;;5065951;28;20712;-33
2023/01/20 12:33:20;;;;;;;7.30;6.37;;;;;;;;;;5070483;28;20217;-29
2023/01/20 12:35:57;;;;;;;10.67;5.70;;;;;;;;;;5073917;28;20212;-30
2023/01/20 12:38:24;;;;;;;9.53;6.30;;;;;;;;;;5054292;28;20199;-31
2023/01/20 12:40:52;;;;;;;8.57;6.50;;;;;;;;;;5067902;28;20297;-38
2023/01/20 12:43:29;;;;;;;5.73;5.10;;;;;;;;;;5066495;28;20229;-33
2023/01/20 12:46:11;;;;;;;7.90;6.17;;;;;;;;;;5056575;28;20198;-36
2023/01/20 12:48:44;;;;;;;9.40;6.47;;;;;;;;;;5068657;28;20201;-34
2023/01/20 12:51:25;;;;;;;9.67;6.77;;;;;;;;;;5066579;28;20193;-30
2023/01/20 12:54:01;;;;;;;8.30;5.93;;;;;;;;;;5063595;28;20256;-28
2023/01/20 12:56:35;;;;;;;10.10;6.40;;;;;;;;;;5069360;28;20207;-31
2023/01/20 12:59:05;;;;;;;8.43;6.00;;;;;;;;;;5064703;28;20224;-30
2023/01/20 13:01:38;;;;;;;8.97;6.40;;;;;;;;;;5064894;28;20232;-31
2023/01/20 13:04:12;;;;;;;8.27;6.40;;;;;;;;;;5072112;28;20233;-34
2023/01/20 13:06:46;;;;;;;9.70;5.97;;;;;;;;;;5071419;28;20192;-28
2023/01/20 13:09:19;;;;;;;8.60;6.33;;;;;;;;;;5064196;28;20264;-35
2023/01/20 13:11:55;;;;;;;9.87;6.20;;;;;;;;;;5073597;28;20219;-30
2023/01/20 13:14:25;;;;;;;7.37;5.67;;;;;;;;;;5059198;28;20229;-35
2023/01/20 13:16:57;;;;;;;6.73;5.47;;;;;;;;;;5060281;28;20587;-30
2023/01/20 13:19:28;;;;;;;10.43;6.33;;;;;;;;;;5069246;28;20190;-31
2023/01/20 13:22:00;;;;;;;8.40;5.83;;;;;;;;;;5068025;28;20217;-29
2023/01/20 13:24:29;;;;;;;6.93;5.23;;;;;;;;;;5053788;28;20221;-36
2023/01/20 13:26:56;;;;;;;7.73;5.03;;;;;;;;;;5069804;28;20295;-35
2023/01/20 13:29:41;;;;;;;8.23;4.70;;;;;;;;;;5063449;28;20213;-33
2023/01/20 13:32:22;;;;;;;10.83;5.63;;;;;;;;;;5063529;28;20573;-35
2023/01/20 13:34:50;;;;;;;7.97;5.30;;;;;;;;;;5062548;28;20216;-27
2023/01/20 13:37:31;;;;;;;9.00;6.40;;;;;;;;;;5070129;28;20687;-33
2023/01/20 13:39:59;;;;;;;10.20;6.23;;;;;;;;;;5056160;28;20208;-28
2023/01/20 13:42:31;;;;;;;8.60;6.00;;;;;;;;;;5068409;28;20225;-33
2023/01/20 13:45:16;;;;;;;9.50;6.13;;;;;;;;;;5063274;28;20198;-32
2023/01/20 13:47:52;;;;;;;8.67;5.80;;;;;;;;;;5071358;28;20641;-35
2023/01/20 13:50:23;;;;;;;10.27;7.17;;;;;;;;;;5072024;28;20205;-32
2023/01/20 13:53:05;;;;;;;9.80;6.53;;;;;;;;;;5066544;28;20217;-35
2023/01/20 13:55:47;;;;;;;10.50;6.90;;;;;;;;;;5065990;28;20201;-29
2023/01/20 13:58:15;;;;;;;11.03;6.13;;;;;;;;;;5067848;28;20250;-31
2023/01/20 14:00:42;;;;;;;8.63;5.63;;;;;;;;;;5059210;28;20208;-32
2023/01/20 14:03:17;;;;;;;9.43;5.73;;;;;;;;;;5069336;28;20220;-32
2023/01/20 14:05:48;;;;;;;9.23;6.00;;;;;;;;;;5071110;28;20662;-35
2023/01/20 14:08:17;;;;;;;8.27;6.70;;;;;;;;;;5063941;28;20208;-35
2023/01/20 14:10:44;;;;;;;8.73;6.33;;;;;;;;;;5066990;28;20652;-37
2023/01/20 14:13:11;;;;;;;6.73;5.97;;;;;;;;;;5071143;28;20292;-28
2023/01/20 14:15:40;;;;;;;6.77;5.27;;;;;;;;;;5059603;28;20655;-30
2023/01/20 14:18:14;;;;;;;8.87;5.83;;;;;;;;;;5070581;28;20216;-30
2023/01/20 14:20:41;;;;;;;6.60;5.53;;;;;;;;;;5071214;28;20194;-31
2023/01/20 14:23:25;;;;;;;10.47;5.63;;;;;;;;;;5058298;28;20291;-31
2023/01/20 14:25:59;;;;;;;8.43;5.13;;;;;;;;;;5068308;28;20213;-30
2023/01/20 14:28:26;;;;;;;9.27;5.67;;;;;;;;;;5068035;28;20659;-30
2023/01/20 14:31:12;;;;;;;5.27;4.77;;;;;;;;;;5055701;28;20212;-32
2023/01/20 14:33:43;;;;;;;9.53;4.60;;;;;;;;;;5069448;28;20229;-30
2023/01/20 14:36:13;;;;;;;4.40;4.00;;;;;;;;;;5058606;28;20213;-31
2023/01/20 14:38:41;;;;;;;5.10;3.80;;;;;;;;;;5055595;28;20213;-32
2023/01/20 14:41:23;;;;;;;5.07;4.13;;;;;;;;;;5068799;28;20202;-31
2023/01/20 14:43:50;;;;;;;6.40;3.73;;;;;;;;;;5065483;28;20233;-30
2023/01/20 14:46:17;;;;;;;4.53;4.07;;;;;;;;;;5056449;28;20213;-32
2023/01/20 14:48:45;;;;;;;10.83;4.50;;;;;;;;;;5069567;28;20205;-29
2023/01/20 14:51:12;;;;;;;10.13;5.43;;;;;;;;;;5071178;28;20201;-35
2023/01/20 14:53:39;;;;;;;6.53;5.43;;;;;;;;;;5061892;28;20233;-32
2023/01/20 14:56:08;;;;;;;6.93;5.00;;;;;;;;;;5058879;28;20205;-33
2023/01/20 14:58:36;;;;;;;8.50;5.60;;;;;;;;;;5071377;28;20197;-37
2023/01/20 15:01:06;;;;;;;8.97;5.53;;;;;;;;;;5065915;28;20200;-31
2023/01/20 15:03:33;;;;;;;7.13;5.77;;;;;;;;;;5072361;28;20247;-34
2023/01/20 15:06:01;;;;;;;8.03;5.37;;;;;;;;;;5068729;28;20205;-36